createdAt,value
2022-08-26T00:02:01.628Z,27.68
2022-08-26T00:04:30.253Z,27.49
2022-08-26T00:06:58.543Z,27.75
2022-08-26T00:09:27.357Z,27.62
2022-08-26T00:11:56.026Z,27.70
2022-08-26T00:14:30.778Z,27.46
2022-08-26T00:16:59.931Z,27.63
2022-08-26T00:19:28.553Z,27.76
2022-08-26T00:21:56.989Z,27.49
2022-08-26T00:24:25.671Z,27.93
2022-08-26T00:27:19.072Z,27.74
2022-08-26T00:29:54.742Z,28.16
2022-08-26T00:32:25.316Z,27.71
2022-08-26T00:34:54.358Z,28.09
2022-08-26T00:37:22.695Z,28.13
2022-08-26T00:39:53.472Z,28.05
2022-08-26T00:42:22.203Z,28.23
2022-08-26T00:44:52.684Z,28.46
2022-08-26T00:47:25.693Z,28.67
2022-08-26T00:50:01.927Z,28.66
2022-08-26T00:52:31.090Z,28.71
2022-08-26T00:55:05.178Z,29.43
2022-08-26T00:57:35.892Z,29.29
2022-08-26T01:00:11.055Z,29.65
2022-08-26T01:02:40.542Z,29.46
2022-08-26T01:05:15.757Z,29.77
2022-08-26T01:07:45.164Z,30.08
2022-08-26T01:10:18.021Z,30.16
2022-08-26T01:12:49.346Z,30.48
2022-08-26T01:15:23.424Z,30.83
2022-08-26T01:17:52.226Z,30.80
2022-08-26T01:20:29.068Z,31.54
2022-08-26T01:23:01.702Z,31.45
2022-08-26T01:25:34.709Z,31.37
2022-08-26T01:28:10.482Z,31.89
2022-08-26T01:30:40.954Z,31.70
2022-08-26T01:33:14.211Z,32.29
2022-08-26T01:35:46.499Z,32.19
2022-08-26T01:38:19.360Z,32.22
2022-08-26T01:40:48.520Z,32.15
2022-08-26T01:43:23.565Z,32.46
2022-08-26T01:45:54.761Z,32.37
2022-08-26T01:48:28.384Z,32.83
2022-08-26T01:50:57.527Z,32.55
2022-08-26T01:53:28.369Z,33.02
2022-08-26T01:56:00.530Z,32.91
2022-08-26T01:58:34.279Z,33.60
2022-08-26T02:01:03.836Z,33.25
2022-08-26T02:03:33.920Z,33.62
2022-08-26T02:06:09.365Z,33.49
2022-08-26T02:08:43.379Z,34.11
2022-08-26T02:11:12.900Z,33.74
2022-08-26T02:13:46.261Z,33.92
2022-08-26T02:16:17.674Z,34.40
2022-08-26T02:18:47.364Z,34.22
2022-08-26T02:21:16.028Z,34.43
2022-08-26T02:23:46.508Z,34.43
2022-08-26T02:26:18.136Z,34.42
2022-08-26T02:28:52.761Z,35.07
2022-08-26T02:31:21.332Z,34.51
2022-08-26T02:33:50.855Z,34.51
2022-08-26T02:36:21.946Z,34.59
2022-08-26T02:38:52.192Z,34.93
2022-08-26T02:41:20.495Z,35.05
2022-08-26T02:43:51.446Z,35.06
2022-08-26T02:46:27.887Z,35.15
2022-08-26T02:48:58.895Z,35.43
2022-08-26T02:51:26.971Z,35.43
2022-08-26T02:53:56.973Z,35.62
2022-08-26T02:56:25.651Z,35.71
2022-08-26T02:59:55.305Z,36.39
2022-08-26T03:02:24.139Z,35.78
2022-08-26T03:04:57.918Z,36.18
2022-08-26T03:07:29.279Z,36.26
2022-08-26T03:10:00.821Z,36.25
2022-08-26T03:12:29.982Z,36.23
2022-08-26T03:14:58.187Z,36.54
2022-08-26T03:17:26.873Z,36.64
2022-08-26T03:19:57.199Z,36.81
2022-08-26T03:22:27.007Z,36.86
2022-08-26T03:24:55.910Z,36.86
2022-08-26T03:27:25.917Z,37.21
2022-08-26T03:30:12.032Z,36.97
2022-08-26T03:32:41.558Z,37.04
2022-08-26T03:35:10.812Z,37.37
2022-08-26T03:37:39.720Z,37.47
2022-08-26T03:40:10.552Z,37.75
2022-08-26T03:42:41.410Z,37.97
2022-08-26T03:45:14.403Z,37.41
2022-08-26T03:48:09.716Z,38.54
2022-08-26T03:50:38.019Z,37.88
2022-08-26T03:53:07.455Z,38.05
2022-08-26T03:55:43.237Z,38.15
2022-08-26T03:58:12.622Z,38.28
2022-08-26T04:00:40.748Z,38.09
2022-08-26T04:03:09.956Z,38.26
2022-08-26T04:05:38.974Z,38.27
2022-08-26T04:08:07.432Z,38.20
2022-08-26T04:10:35.396Z,38.43
2022-08-26T04:13:03.343Z,38.13
2022-08-26T04:15:33.357Z,38.43
2022-08-26T04:18:02.764Z,38.23
2022-08-26T04:20:31.957Z,38.54
2022-08-26T04:23:00.136Z,38.42
2022-08-26T04:25:28.196Z,38.24
2022-08-26T04:27:58.468Z,38.52
2022-08-26T04:30:26.344Z,38.28
2022-08-26T04:32:55.809Z,38.73
2022-08-26T04:35:25.985Z,38.48
2022-08-26T04:37:55.300Z,38.50
2022-08-26T04:40:23.597Z,38.62
2022-08-26T04:42:51.622Z,38.53
2022-08-26T04:45:22.837Z,38.66
2022-08-26T04:47:56.362Z,38.69
2022-08-26T04:50:26.518Z,38.30
2022-08-26T04:52:55.337Z,38.17
2022-08-26T04:55:25.192Z,38.41
2022-08-26T04:58:08.724Z,38.25
2022-08-26T05:00:38.345Z,38.17
2022-08-26T05:03:10.207Z,38.00
2022-08-26T05:06:00.486Z,38.17
2022-08-26T05:08:28.348Z,38.21
2022-08-26T05:10:56.662Z,37.63
2022-08-26T05:13:26.744Z,37.96
2022-08-26T05:15:58.147Z,37.82
2022-08-26T05:18:31.226Z,37.98
2022-08-26T05:20:59.091Z,37.95
2022-08-26T05:23:26.906Z,37.63
2022-08-26T05:25:59.261Z,37.80
2022-08-26T05:28:30.746Z,37.72
2022-08-26T05:30:58.702Z,37.96
2022-08-26T05:33:26.664Z,37.90
2022-08-26T05:35:56.027Z,37.89
2022-08-26T05:38:24.814Z,37.91
2022-08-26T05:40:54.621Z,37.76
2022-08-26T05:43:48.215Z,37.77
2022-08-26T05:46:16.948Z,37.51
2022-08-26T05:48:45.628Z,37.47
2022-08-26T05:51:16.848Z,37.69
2022-08-26T05:53:54.610Z,37.57
2022-08-26T05:56:24.824Z,37.53
2022-08-26T05:58:53.136Z,37.65
2022-08-26T06:01:24.240Z,37.72
2022-08-26T06:03:54.209Z,37.75
2022-08-26T06:06:27.288Z,37.76
2022-08-26T06:08:59.431Z,37.75
2022-08-26T06:11:30.576Z,37.51
2022-08-26T06:14:03.745Z,37.53
2022-08-26T06:17:21.816Z,37.62
2022-08-26T06:19:51.392Z,37.63
2022-08-26T06:22:37.929Z,37.55
2022-08-26T06:25:35.669Z,37.78
2022-08-26T06:28:15.275Z,38.01
2022-08-26T06:30:43.335Z,37.64
2022-08-26T06:33:11.146Z,37.71
2022-08-26T06:35:40.301Z,37.81
2022-08-26T06:38:11.084Z,38.00
2022-08-26T06:40:42.357Z,37.93
2022-08-26T06:43:11.254Z,37.85
2022-08-26T06:45:39.533Z,37.71
2022-08-26T06:48:09.094Z,37.77
2022-08-26T06:50:37.841Z,37.75
2022-08-26T06:53:06.001Z,37.79
2022-08-26T06:55:41.558Z,37.92
2022-08-26T06:58:10.626Z,37.72
2022-08-26T07:01:11.392Z,37.57
2022-08-26T07:03:39.957Z,37.66
2022-08-26T07:06:08.794Z,37.45
2022-08-26T07:08:36.775Z,37.62
2022-08-26T07:11:08.107Z,37.67
2022-08-26T07:13:38.099Z,37.68
2022-08-26T07:16:06.791Z,37.75
2022-08-26T07:18:36.089Z,37.82
2022-08-26T07:21:06.762Z,37.60
2022-08-26T07:23:35.880Z,37.79
2022-08-26T07:26:08.160Z,37.94
2022-08-26T07:28:35.922Z,38.08
2022-08-26T07:31:07.450Z,37.63
2022-08-26T07:33:39.036Z,37.97
2022-08-26T07:36:08.804Z,37.70
2022-08-26T07:38:38.741Z,37.83
2022-08-26T07:41:09.610Z,38.02
2022-08-26T07:43:38.104Z,38.15
2022-08-26T07:46:07.759Z,37.86
2022-08-26T07:48:36.360Z,38.27
2022-08-26T07:51:05.688Z,38.04
2022-08-26T07:53:36.090Z,37.93
2022-08-26T07:56:04.914Z,37.90
2022-08-26T07:58:34.378Z,37.52
2022-08-26T08:01:02.406Z,37.95
2022-08-26T08:03:32.718Z,37.76
2022-08-26T08:06:00.811Z,37.55
2022-08-26T08:08:29.069Z,37.74
2022-08-26T08:11:03.636Z,38.04
2022-08-26T08:13:35.640Z,37.83
2022-08-26T08:16:04.039Z,37.80
2022-08-26T08:18:32.227Z,37.67
2022-08-26T08:21:20.916Z,38.02
2022-08-26T08:23:50.220Z,38.02
2022-08-26T08:26:18.546Z,37.89
2022-08-26T08:28:48.416Z,37.73
2022-08-26T08:31:51.981Z,37.76
2022-08-26T08:34:10.358Z,38.07
2022-08-26T08:36:38.374Z,37.75
2022-08-26T08:39:07.115Z,37.80
2022-08-26T08:42:16.077Z,37.59
2022-08-26T08:44:52.231Z,37.81
2022-08-26T08:47:26.906Z,37.44
2022-08-26T08:49:57.169Z,37.57
2022-08-26T08:52:30.940Z,37.80
2022-08-26T08:54:59.347Z,37.70
2022-08-26T08:57:42.030Z,37.74
2022-08-26T09:00:18.291Z,37.83
2022-08-26T09:02:53.585Z,37.79
2022-08-26T09:05:24.879Z,37.68
2022-08-26T09:07:58.451Z,38.06
2022-08-26T09:10:36.160Z,37.87
2022-08-26T09:13:07.339Z,37.87
2022-08-26T09:15:51.741Z,38.02
2022-08-26T09:18:31.141Z,38.08
2022-08-26T09:21:03.326Z,37.80
2022-08-26T09:23:35.794Z,37.70
2022-08-26T09:26:14.866Z,37.75
2022-08-26T09:28:48.151Z,37.84
2022-08-26T09:31:27.505Z,37.95
2022-08-26T09:34:08.095Z,37.68
2022-08-26T09:36:41.178Z,37.76
2022-08-26T09:39:27.100Z,37.57
2022-08-26T09:42:09.468Z,37.95
2022-08-26T09:44:55.044Z,37.71
2022-08-26T09:47:30.156Z,37.65
2022-08-26T09:50:01.182Z,37.59
2022-08-26T09:52:30.538Z,37.48
2022-08-26T09:55:11.478Z,37.69
2022-08-26T09:57:48.476Z,37.46
2022-08-26T10:00:32.573Z,37.29
2022-08-26T10:03:04.576Z,37.56
2022-08-26T10:05:39.991Z,37.59
2022-08-26T10:08:23.916Z,37.60
2022-08-26T10:10:53.491Z,37.54
2022-08-26T10:13:26.965Z,37.63
2022-08-26T10:16:05.681Z,37.49
2022-08-26T10:19:00.142Z,37.21
2022-08-26T10:21:35.512Z,37.49
2022-08-26T10:24:04.724Z,37.39
2022-08-26T10:26:42.663Z,37.70
2022-08-26T10:30:11.869Z,37.73
2022-08-26T10:32:43.012Z,37.81
2022-08-26T10:35:16.139Z,37.89
2022-08-26T10:37:47.882Z,37.58
2022-08-26T10:40:24.579Z,37.30
2022-08-26T10:42:57.897Z,37.77
2022-08-26T10:45:30.297Z,37.47
2022-08-26T10:48:08.099Z,37.42
2022-08-26T10:50:41.417Z,37.40
2022-08-26T10:53:17.160Z,37.06
2022-08-26T10:55:51.775Z,37.20
2022-08-26T10:58:33.071Z,37.04
2022-08-26T11:01:27.081Z,37.09
2022-08-26T11:04:02.790Z,36.91
2022-08-26T11:06:33.200Z,36.77
2022-08-26T11:09:08.582Z,36.67
2022-08-26T11:11:46.839Z,36.51
2022-08-26T11:14:40.739Z,36.34
2022-08-26T11:17:56.477Z,36.27
2022-08-26T11:20:49.393Z,36.24
2022-08-26T11:23:50.784Z,36.36
2022-08-26T11:26:36.214Z,36.33
2022-08-26T11:29:12.061Z,36.07
2022-08-26T11:31:57.554Z,36.24
2022-08-26T11:34:55.195Z,36.17
2022-08-26T11:37:37.516Z,36.00
2022-08-26T11:40:14.061Z,36.19
2022-08-26T11:42:45.949Z,36.04
2022-08-26T11:45:20.438Z,35.82
2022-08-26T11:47:49.335Z,36.05
2022-08-26T11:50:21.469Z,35.54
2022-08-26T11:52:55.075Z,35.79
2022-08-26T11:55:25.196Z,35.61
2022-08-26T11:57:57.237Z,35.51
2022-08-26T12:00:28.107Z,35.50
2022-08-26T12:03:06.490Z,35.48
2022-08-26T12:05:39.450Z,35.39
2022-08-26T12:08:10.554Z,35.19
2022-08-26T12:10:40.462Z,35.00
2022-08-26T12:13:10.213Z,35.17
2022-08-26T12:15:38.501Z,35.22
2022-08-26T12:18:28.763Z,34.82
2022-08-26T12:21:00.378Z,35.08
2022-08-26T12:23:41.284Z,34.75
2022-08-26T12:26:19.864Z,35.06
2022-08-26T12:28:51.323Z,34.75
2022-08-26T12:31:27.203Z,34.83
2022-08-26T12:33:57.392Z,34.80
2022-08-26T12:36:31.626Z,34.78
2022-08-26T12:39:08.611Z,34.33
2022-08-26T12:41:45.127Z,34.49
2022-08-26T12:44:32.384Z,34.35
2022-08-26T12:47:05.108Z,34.58
2022-08-26T12:49:33.291Z,34.39
2022-08-26T12:52:01.434Z,34.37
2022-08-26T12:54:51.534Z,34.37
2022-08-26T12:57:30.320Z,34.21
2022-08-26T13:00:28.397Z,34.47
2022-08-26T13:02:56.928Z,34.42
2022-08-26T13:05:27.740Z,34.54
2022-08-26T13:08:13.343Z,34.23
2022-08-26T13:10:43.267Z,34.29
2022-08-26T13:13:12.942Z,34.11
2022-08-26T13:15:41.417Z,34.36
2022-08-26T13:18:09.375Z,34.01
2022-08-26T13:20:44.106Z,33.72
2022-08-26T13:23:41.913Z,34.02
2022-08-26T13:26:10.605Z,34.32
2022-08-26T13:28:40.207Z,34.22
2022-08-26T13:31:08.825Z,34.23
2022-08-26T13:33:40.088Z,34.19
2022-08-26T13:36:09.904Z,34.38
2022-08-26T13:38:43.248Z,34.44
2022-08-26T13:41:17.225Z,34.42
2022-08-26T13:43:59.650Z,34.40
2022-08-26T13:46:29.186Z,34.50
2022-08-26T13:49:13.330Z,34.67
2022-08-26T13:51:42.983Z,34.70
2022-08-26T13:54:11.076Z,34.64
2022-08-26T13:56:39.434Z,34.65
2022-08-26T13:59:09.175Z,34.66
2022-08-26T14:01:40.103Z,35.12
2022-08-26T14:04:08.650Z,34.91
2022-08-26T14:06:37.531Z,35.04
2022-08-26T14:09:05.980Z,34.70
2022-08-26T14:11:50.911Z,34.84
2022-08-26T14:14:23.515Z,35.26
2022-08-26T14:16:59.681Z,35.03
2022-08-26T14:19:29.981Z,35.04
2022-08-26T14:22:00.787Z,35.25
2022-08-26T14:24:29.526Z,35.17
2022-08-26T14:26:57.729Z,35.15
2022-08-26T14:29:27.465Z,35.34
2022-08-26T14:31:58.664Z,35.22
2022-08-26T14:34:29.956Z,35.16
2022-08-26T14:36:57.983Z,35.60
2022-08-26T14:39:35.874Z,35.35
2022-08-26T14:42:03.856Z,35.46
2022-08-26T14:44:34.341Z,35.51
2022-08-26T14:47:06.069Z,35.52
2022-08-26T14:49:34.214Z,35.82
2022-08-26T14:52:02.642Z,35.77
2022-08-26T14:54:30.875Z,35.91
2022-08-26T14:57:04.895Z,35.79
2022-08-26T14:59:37.052Z,35.86
2022-08-26T15:02:05.213Z,36.28
2022-08-26T15:04:36.008Z,35.78
2022-08-26T15:07:04.826Z,35.93
2022-08-26T15:09:44.182Z,35.74
2022-08-26T15:12:11.902Z,36.19
2022-08-26T15:14:41.226Z,35.81
2022-08-26T15:17:09.331Z,35.74
2022-08-26T15:19:55.603Z,35.31
2022-08-26T15:22:24.231Z,35.46
2022-08-26T15:24:57.838Z,35.29
2022-08-26T15:27:25.913Z,35.20
2022-08-26T15:29:55.465Z,35.03
2022-08-26T15:32:23.578Z,35.03
2022-08-26T15:34:53.015Z,35.00
2022-08-26T15:37:21.150Z,34.92
2022-08-26T15:39:49.536Z,34.85
2022-08-26T15:42:17.579Z,34.73
2022-08-26T15:44:46.517Z,34.61
2022-08-26T15:47:16.265Z,35.04
2022-08-26T15:49:44.179Z,34.64
2022-08-26T15:52:12.219Z,34.73
2022-08-26T15:54:41.007Z,34.78
2022-08-26T15:57:11.504Z,34.80
2022-08-26T15:59:40.774Z,34.89
2022-08-26T16:02:09.184Z,34.58
2022-08-26T16:04:38.637Z,34.41
2022-08-26T16:07:06.834Z,34.43
2022-08-26T16:09:34.910Z,34.55
2022-08-26T16:12:03.142Z,34.80
2022-08-26T16:14:32.361Z,34.53
2022-08-26T16:17:00.538Z,34.58
2022-08-26T16:19:28.544Z,34.55
2022-08-26T16:21:57.920Z,34.47
2022-08-26T16:24:30.192Z,34.55
2022-08-26T16:26:58.688Z,34.64
2022-08-26T16:29:26.723Z,34.48
2022-08-26T16:31:55.147Z,34.67
2022-08-26T16:34:23.537Z,34.62
2022-08-26T16:36:52.376Z,34.58
2022-08-26T16:39:21.813Z,34.60
2022-08-26T16:41:50.454Z,34.45
2022-08-26T16:44:19.238Z,34.57
2022-08-26T16:46:49.578Z,34.60
2022-08-26T16:49:17.691Z,34.34
2022-08-26T16:51:45.756Z,34.40
2022-08-26T16:54:13.914Z,34.56
2022-08-26T16:56:43.299Z,34.69
2022-08-26T16:59:12.234Z,34.24
2022-08-26T17:01:40.601Z,34.38
2022-08-26T17:04:08.919Z,34.37
2022-08-26T17:06:37.014Z,34.34
2022-08-26T17:09:05.503Z,34.36
2022-08-26T17:11:33.986Z,34.39
2022-08-26T17:14:03.738Z,34.37
2022-08-26T17:16:31.768Z,34.67
2022-08-26T17:19:00.922Z,34.43
2022-08-26T17:21:29.726Z,34.62
2022-08-26T17:23:57.694Z,34.33
2022-08-26T17:26:25.810Z,34.43
2022-08-26T17:28:54.102Z,34.53
2022-08-26T17:31:24.497Z,34.87
2022-08-26T17:33:53.755Z,34.72
2022-08-26T17:36:28.091Z,34.72
2022-08-26T17:38:57.767Z,34.67
2022-08-26T17:41:26.672Z,34.70
2022-08-26T17:43:54.822Z,34.76
2022-08-26T17:46:25.460Z,34.92
2022-08-26T17:48:53.925Z,34.87
2022-08-26T17:51:22.948Z,34.91
2022-08-26T17:53:51.890Z,34.83
2022-08-26T17:56:24.002Z,34.84
2022-08-26T17:58:51.973Z,35.46
2022-08-26T18:01:21.096Z,35.06
2022-08-26T18:03:51.062Z,34.93
2022-08-26T18:06:21.051Z,34.93
2022-08-26T18:08:49.301Z,35.08
2022-08-26T18:11:19.639Z,35.00
2022-08-26T18:13:48.208Z,35.26
2022-08-26T18:16:18.082Z,34.91
2022-08-26T18:18:47.631Z,35.14
2022-08-26T18:21:19.456Z,35.30
2022-08-26T18:23:48.598Z,35.51
2022-08-26T18:26:18.442Z,35.40
2022-08-26T18:28:46.628Z,35.36
2022-08-26T18:31:15.333Z,35.39
2022-08-26T18:33:44.148Z,35.27
2022-08-26T18:36:19.558Z,35.85
2022-08-26T18:38:50.461Z,35.63
2022-08-26T18:41:20.699Z,35.71
2022-08-26T18:43:50.398Z,35.71
2022-08-26T18:46:21.025Z,35.40
2022-08-26T18:48:50.846Z,35.66
2022-08-26T18:51:22.867Z,35.64
2022-08-26T18:54:01.927Z,35.88
2022-08-26T18:56:30.866Z,35.72
2022-08-26T18:58:59.803Z,35.45
2022-08-26T19:01:29.682Z,35.71
2022-08-26T19:03:58.619Z,35.81
2022-08-26T19:06:29.402Z,35.80
2022-08-26T19:08:57.946Z,35.89
2022-08-26T19:11:31.556Z,35.86
2022-08-26T19:14:01.783Z,36.03
2022-08-26T19:16:31.238Z,35.77
2022-08-26T19:19:00.996Z,36.05
2022-08-26T19:21:31.184Z,36.24
2022-08-26T19:24:00.951Z,35.86
2022-08-26T19:26:29.955Z,36.01
2022-08-26T19:28:58.897Z,36.04
2022-08-26T19:31:27.290Z,35.89
2022-08-26T19:33:56.700Z,36.07
2022-08-26T19:36:26.168Z,36.00
2022-08-26T19:38:56.728Z,35.96
2022-08-26T19:41:36.557Z,36.17
2022-08-26T19:44:08.392Z,36.11
2022-08-26T19:49:10.399Z,36.00
2022-08-26T19:51:38.665Z,35.91
2022-08-26T19:54:08.465Z,36.02
2022-08-26T19:56:36.671Z,36.19
2022-08-26T19:59:04.606Z,36.17
2022-08-26T20:01:32.797Z,36.09
2022-08-26T20:04:01.262Z,36.49
2022-08-26T20:06:29.249Z,36.42
2022-08-26T20:08:57.563Z,36.42
2022-08-26T20:11:27.223Z,36.38
2022-08-26T20:13:55.356Z,36.43
2022-08-26T20:16:23.409Z,36.67
2022-08-26T20:19:09.146Z,36.59
2022-08-26T20:21:39.902Z,36.43
2022-08-26T20:24:11.595Z,36.65
2022-08-26T20:26:44.030Z,36.83
2022-08-26T20:29:16.833Z,36.66
2022-08-26T20:31:45.837Z,36.83
2022-08-26T20:34:16.302Z,36.46
2022-08-26T20:36:45.562Z,36.66
2022-08-26T20:39:16.333Z,36.91
2022-08-26T20:41:46.320Z,36.73
2022-08-26T20:44:14.884Z,36.48
2022-08-26T20:46:43.321Z,36.76
2022-08-26T20:49:11.797Z,37.02
2022-08-26T20:51:43.043Z,36.69
2022-08-26T20:54:13.779Z,37.08
2022-08-26T20:56:55.227Z,37.06
2022-08-26T20:59:23.571Z,36.98
2022-08-26T21:01:54.574Z,36.84
2022-08-26T21:04:26.449Z,37.08
2022-08-26T21:06:55.734Z,37.00
2022-08-26T21:09:25.970Z,37.37
2022-08-26T21:11:56.706Z,37.12
2022-08-26T21:14:25.707Z,37.44
2022-08-26T21:16:54.779Z,37.19
2022-08-26T21:19:25.549Z,37.00
2022-08-26T21:22:54.963Z,37.10
2022-08-26T21:25:23.352Z,36.95
2022-08-26T21:27:53.099Z,37.28
2022-08-26T21:30:21.739Z,37.08
2022-08-26T21:32:50.578Z,37.29
2022-08-26T21:35:19.133Z,37.07
2022-08-26T21:37:47.609Z,37.29
2022-08-26T21:40:15.990Z,37.19
2022-08-26T21:42:44.335Z,37.06
2022-08-26T21:45:14.322Z,37.28
2022-08-26T21:47:42.664Z,37.28
2022-08-26T21:50:15.210Z,37.42
2022-08-26T21:52:45.074Z,37.29
2022-08-26T21:55:14.233Z,37.19
2022-08-26T21:57:42.535Z,37.67
2022-08-26T22:00:37.986Z,37.97
2022-08-26T22:03:06.431Z,37.51
2022-08-26T22:05:34.660Z,37.67
2022-08-26T22:08:03.324Z,37.81
2022-08-26T22:10:31.578Z,37.71
2022-08-26T22:12:59.959Z,37.91
2022-08-26T22:15:28.302Z,38.02
2022-08-26T22:17:58.022Z,38.64
2022-08-26T22:20:27.610Z,38.47
2022-08-26T22:22:55.759Z,38.34
2022-08-26T22:25:26.087Z,39.06
2022-08-26T22:27:55.377Z,38.68
2022-08-26T22:30:25.553Z,38.58
2022-08-26T22:32:55.995Z,39.35
2022-08-26T22:35:28.474Z,39.05
2022-08-26T22:37:59.193Z,39.78
2022-08-26T22:40:27.514Z,39.42
2022-08-26T22:43:00.347Z,39.50
2022-08-26T22:45:29.327Z,40.01
2022-08-26T22:47:57.675Z,39.93
2022-08-26T22:50:34.983Z,40.10
2022-08-26T22:53:03.921Z,39.99
2022-08-26T22:55:32.558Z,40.06
2022-08-26T22:58:01.380Z,40.18
2022-08-26T23:00:32.012Z,40.17
2022-08-26T23:03:01.368Z,40.60
2022-08-26T23:05:51.938Z,40.67
2022-08-26T23:08:27.004Z,40.63
2022-08-26T23:10:55.388Z,40.38
2022-08-26T23:13:23.745Z,40.98
2022-08-26T23:16:01.703Z,41.78
2022-08-26T23:18:30.196Z,41.10
2022-08-26T23:20:59.811Z,40.97
2022-08-26T23:23:28.431Z,41.09
2022-08-26T23:25:57.377Z,40.94
2022-08-26T23:28:26.595Z,41.26
2022-08-26T23:30:55.743Z,41.71
2022-08-26T23:33:24.281Z,41.42
2022-08-26T23:35:51.555Z,41.65
2022-08-26T23:38:24.591Z,42.28
2022-08-26T23:40:53.184Z,41.55
2022-08-26T23:43:21.446Z,41.27
2022-08-26T23:45:49.964Z,41.53
2022-08-26T23:48:18.487Z,41.59
2022-08-26T23:51:05.731Z,41.74
2022-08-26T23:53:35.980Z,41.83
2022-08-26T23:56:04.842Z,41.89
2022-08-26T23:58:33.806Z,41.43
